sensor_id;sensor_type;location;lat;lon;timestamp;P1;durP1;ratioP1;P2;durP2;ratioP2
32780;SDS011;19136;47.032;15.502;2022-07-06T00:01:09;7.57;;;4.15;;
32780;SDS011;19136;47.032;15.502;2022-07-06T00:03:35;6.85;;;4.30;;
32780;SDS011;19136;47.032;15.502;2022-07-06T00:06:00;6.95;;;4.38;;
32780;SDS011;19136;47.032;15.502;2022-07-06T00:08:26;11.07;;;4.68;;
32780;SDS011;19136;47.032;15.502;2022-07-06T00:10:52;6.18;;;4.60;;
32780;SDS011;19136;47.032;15.502;2022-07-06T00:13:17;13.95;;;4.60;;
32780;SDS011;19136;47.032;15.502;2022-07-06T00:15:43;7.45;;;4.40;;
32780;SDS011;19136;47.032;15.502;2022-07-06T00:18:08;6.80;;;4.25;;
32780;SDS011;19136;47.032;15.502;2022-07-06T00:20:34;7.20;;;4.63;;
32780;SDS011;19136;47.032;15.502;2022-07-06T00:23:00;6.75;;;4.28;;
32780;SDS011;19136;47.032;15.502;2022-07-06T00:25:25;6.53;;;4.47;;
32780;SDS011;19136;47.032;15.502;2022-07-06T00:27:51;6.38;;;4.57;;
32780;SDS011;19136;47.032;15.502;2022-07-06T00:30:16;7.35;;;4.70;;
32780;SDS011;19136;47.032;15.502;2022-07-06T00:32:42;6.90;;;4.32;;
32780;SDS011;19136;47.032;15.502;2022-07-06T00:35:07;12.45;;;4.68;;
32780;SDS011;19136;47.032;15.502;2022-07-06T00:37:33;7.95;;;4.53;;
32780;SDS011;19136;47.032;15.502;2022-07-06T00:39:58;8.48;;;4.90;;
32780;SDS011;19136;47.032;15.502;2022-07-06T00:42:24;6.82;;;4.75;;
32780;SDS011;19136;47.032;15.502;2022-07-06T00:44:50;11.20;;;4.95;;
32780;SDS011;19136;47.032;15.502;2022-07-06T00:47:15;8.50;;;4.55;;
32780;SDS011;19136;47.032;15.502;2022-07-06T00:49:41;6.03;;;4.97;;
32780;SDS011;19136;47.032;15.502;2022-07-06T00:52:25;10.57;;;4.75;;
32780;SDS011;19136;47.032;15.502;2022-07-06T00:54:51;6.70;;;4.60;;
32780;SDS011;19136;47.032;15.502;2022-07-06T00:57:17;8.55;;;5.20;;
32780;SDS011;19136;47.032;15.502;2022-07-06T00:59:45;8.27;;;4.32;;
32780;SDS011;19136;47.032;15.502;2022-07-06T01:02:11;6.03;;;4.88;;
32780;SDS011;19136;47.032;15.502;2022-07-06T01:04:38;8.02;;;4.95;;
32780;SDS011;19136;47.032;15.502;2022-07-06T01:07:03;11.60;;;4.90;;
32780;SDS011;19136;47.032;15.502;2022-07-06T01:09:29;13.82;;;5.15;;
32780;SDS011;19136;47.032;15.502;2022-07-06T01:11:55;10.85;;;4.90;;
32780;SDS011;19136;47.032;15.502;2022-07-06T01:14:20;7.53;;;4.60;;
32780;SDS011;19136;47.032;15.502;2022-07-06T01:16:46;10.65;;;4.85;;
32780;SDS011;19136;47.032;15.502;2022-07-06T01:19:12;8.82;;;5.35;;
32780;SDS011;19136;47.032;15.502;2022-07-06T01:21:38;8.43;;;5.15;;
32780;SDS011;19136;47.032;15.502;2022-07-06T01:24:03;8.05;;;5.35;;
32780;SDS011;19136;47.032;15.502;2022-07-06T01:26:29;13.32;;;6.43;;
32780;SDS011;19136;47.032;15.502;2022-07-06T01:28:55;6.60;;;4.72;;
32780;SDS011;19136;47.032;15.502;2022-07-06T01:31:21;7.85;;;5.53;;
32780;SDS011;19136;47.032;15.502;2022-07-06T01:33:48;8.63;;;5.30;;
32780;SDS011;19136;47.032;15.502;2022-07-06T01:36:14;10.85;;;5.43;;
32780;SDS011;19136;47.032;15.502;2022-07-06T01:38:46;8.27;;;5.03;;
32780;SDS011;19136;47.032;15.502;2022-07-06T01:41:13;9.10;;;5.97;;
32780;SDS011;19136;47.032;15.502;2022-07-06T01:43:39;7.95;;;4.97;;
32780;SDS011;19136;47.032;15.502;2022-07-06T01:46:05;12.13;;;5.63;;
32780;SDS011;19136;47.032;15.502;2022-07-06T01:48:30;9.30;;;5.75;;
32780;SDS011;19136;47.032;15.502;2022-07-06T01:50:56;6.97;;;5.50;;
32780;SDS011;19136;47.032;15.502;2022-07-06T01:53:21;6.78;;;5.00;;
32780;SDS011;19136;47.032;15.502;2022-07-06T01:55:47;10.40;;;6.60;;
32780;SDS011;19136;47.032;15.502;2022-07-06T01:58:12;7.18;;;5.85;;
32780;SDS011;19136;47.032;15.502;2022-07-06T02:00:38;9.10;;;5.57;;
32780;SDS011;19136;47.032;15.502;2022-07-06T02:03:03;8.07;;;5.85;;
32780;SDS011;19136;47.032;15.502;2022-07-06T02:05:29;7.93;;;5.72;;
32780;SDS011;19136;47.032;15.502;2022-07-06T02:07:54;7.35;;;5.80;;
32780;SDS011;19136;47.032;15.502;2022-07-06T02:10:20;16.25;;;6.63;;
32780;SDS011;19136;47.032;15.502;2022-07-06T02:12:46;8.90;;;5.55;;
32780;SDS011;19136;47.032;15.502;2022-07-06T02:15:12;6.22;;;5.18;;
32780;SDS011;19136;47.032;15.502;2022-07-06T02:17:37;8.70;;;5.45;;
32780;SDS011;19136;47.032;15.502;2022-07-06T02:20:03;11.02;;;6.10;;
32780;SDS011;19136;47.032;15.502;2022-07-06T02:22:30;10.68;;;5.97;;
32780;SDS011;19136;47.032;15.502;2022-07-06T02:24:55;8.95;;;6.18;;
32780;SDS011;19136;47.032;15.502;2022-07-06T02:27:21;8.05;;;5.68;;
32780;SDS011;19136;47.032;15.502;2022-07-06T02:29:46;8.18;;;5.05;;
32780;SDS011;19136;47.032;15.502;2022-07-06T02:32:12;8.05;;;5.40;;
32780;SDS011;19136;47.032;15.502;2022-07-06T02:34:37;9.27;;;5.80;;
32780;SDS011;19136;47.032;15.502;2022-07-06T02:37:03;11.38;;;6.70;;
32780;SDS011;19136;47.032;15.502;2022-07-06T02:39:28;7.82;;;6.20;;
32780;SDS011;19136;47.032;15.502;2022-07-06T02:41:54;8.68;;;7.25;;
32780;SDS011;19136;47.032;15.502;2022-07-06T02:44:19;9.88;;;6.43;;
32780;SDS011;19136;47.032;15.502;2022-07-06T02:46:45;8.32;;;6.43;;
32780;SDS011;19136;47.032;15.502;2022-07-06T02:49:10;14.07;;;6.05;;
32780;SDS011;19136;47.032;15.502;2022-07-06T02:51:36;11.82;;;6.50;;
32780;SDS011;19136;47.032;15.502;2022-07-06T02:54:01;12.48;;;8.00;;
32780;SDS011;19136;47.032;15.502;2022-07-06T02:56:27;9.13;;;6.35;;
32780;SDS011;19136;47.032;15.502;2022-07-06T02:58:53;10.45;;;6.80;;
32780;SDS011;19136;47.032;15.502;2022-07-06T03:01:19;10.00;;;5.80;;
32780;SDS011;19136;47.032;15.502;2022-07-06T03:03:44;9.43;;;5.80;;
32780;SDS011;19136;47.032;15.502;2022-07-06T03:06:10;15.52;;;5.53;;
32780;SDS011;19136;47.032;15.502;2022-07-06T03:08:35;9.20;;;6.45;;
32780;SDS011;19136;47.032;15.502;2022-07-06T03:11:01;9.63;;;6.47;;
32780;SDS011;19136;47.032;15.502;2022-07-06T03:13:27;11.90;;;6.20;;
32780;SDS011;19136;47.032;15.502;2022-07-06T03:15:53;6.95;;;5.53;;
32780;SDS011;19136;47.032;15.502;2022-07-06T03:18:19;13.00;;;5.50;;
32780;SDS011;19136;47.032;15.502;2022-07-06T03:20:45;13.15;;;6.85;;
32780;SDS011;19136;47.032;15.502;2022-07-06T03:23:10;11.23;;;5.53;;
32780;SDS011;19136;47.032;15.502;2022-07-06T03:25:36;10.75;;;6.18;;
32780;SDS011;19136;47.032;15.502;2022-07-06T03:28:01;9.27;;;6.05;;
32780;SDS011;19136;47.032;15.502;2022-07-06T03:30:27;11.20;;;5.88;;
32780;SDS011;19136;47.032;15.502;2022-07-06T03:32:53;11.32;;;6.40;;
32780;SDS011;19136;47.032;15.502;2022-07-06T03:35:18;11.95;;;6.00;;
32780;SDS011;19136;47.032;15.502;2022-07-06T03:37:44;11.65;;;6.07;;
32780;SDS011;19136;47.032;15.502;2022-07-06T03:40:10;10.43;;;6.75;;
32780;SDS011;19136;47.032;15.502;2022-07-06T03:42:36;8.75;;;6.50;;
32780;SDS011;19136;47.032;15.502;2022-07-06T03:45:03;8.80;;;6.05;;
32780;SDS011;19136;47.032;15.502;2022-07-06T03:47:29;11.60;;;6.50;;
32780;SDS011;19136;47.032;15.502;2022-07-06T03:49:55;11.00;;;6.82;;
32780;SDS011;19136;47.032;15.502;2022-07-06T03:52:21;10.23;;;6.05;;
32780;SDS011;19136;47.032;15.502;2022-07-06T03:54:47;8.45;;;6.05;;
32780;SDS011;19136;47.032;15.502;2022-07-06T03:57:12;8.15;;;6.50;;
32780;SDS011;19136;47.032;15.502;2022-07-06T03:59:38;7.85;;;6.18;;
32780;SDS011;19136;47.032;15.502;2022-07-06T04:02:05;12.98;;;6.28;;
32780;SDS011;19136;47.032;15.502;2022-07-06T04:04:31;20.55;;;7.25;;
32780;SDS011;19136;47.032;15.502;2022-07-06T04:06:56;10.45;;;6.10;;
32780;SDS011;19136;47.032;15.502;2022-07-06T04:09:22;9.55;;;6.10;;
32780;SDS011;19136;47.032;15.502;2022-07-06T04:11:50;9.35;;;6.70;;
32780;SDS011;19136;47.032;15.502;2022-07-06T04:14:16;9.07;;;5.93;;
32780;SDS011;19136;47.032;15.502;2022-07-06T04:16:42;10.55;;;6.03;;
32780;SDS011;19136;47.032;15.502;2022-07-06T04:19:07;11.02;;;6.10;;
32780;SDS011;19136;47.032;15.502;2022-07-06T04:21:33;12.43;;;6.13;;
32780;SDS011;19136;47.032;15.502;2022-07-06T04:23:58;18.63;;;6.30;;
32780;SDS011;19136;47.032;15.502;2022-07-06T04:26:24;10.88;;;6.20;;
32780;SDS011;19136;47.032;15.502;2022-07-06T04:28:49;9.13;;;6.20;;
32780;SDS011;19136;47.032;15.502;2022-07-06T04:31:15;12.18;;;5.88;;
32780;SDS011;19136;47.032;15.502;2022-07-06T04:33:41;10.38;;;5.97;;
32780;SDS011;19136;47.032;15.502;2022-07-06T04:36:08;10.85;;;5.80;;
32780;SDS011;19136;47.032;15.502;2022-07-06T04:38:34;8.77;;;5.82;;
32780;SDS011;19136;47.032;15.502;2022-07-06T04:41:00;8.68;;;5.47;;
32780;SDS011;19136;47.032;15.502;2022-07-06T04:43:25;10.27;;;6.72;;
32780;SDS011;19136;47.032;15.502;2022-07-06T04:45:51;11.85;;;6.20;;
32780;SDS011;19136;47.032;15.502;2022-07-06T04:48:17;8.07;;;5.90;;
32780;SDS011;19136;47.032;15.502;2022-07-06T04:50:42;6.63;;;5.22;;
32780;SDS011;19136;47.032;15.502;2022-07-06T04:53:08;10.75;;;5.95;;
32780;SDS011;19136;47.032;15.502;2022-07-06T04:55:33;12.98;;;7.03;;
32780;SDS011;19136;47.032;15.502;2022-07-06T04:57:59;12.82;;;6.28;;
32780;SDS011;19136;47.032;15.502;2022-07-06T05:00:25;11.27;;;6.38;;
32780;SDS011;19136;47.032;15.502;2022-07-06T05:02:50;8.30;;;5.72;;
32780;SDS011;19136;47.032;15.502;2022-07-06T05:05:16;10.32;;;6.13;;
32780;SDS011;19136;47.032;15.502;2022-07-06T05:07:42;8.68;;;6.05;;
32780;SDS011;19136;47.032;15.502;2022-07-06T05:10:08;8.38;;;5.22;;
32780;SDS011;19136;47.032;15.502;2022-07-06T05:12:38;14.20;;;5.32;;
32780;SDS011;19136;47.032;15.502;2022-07-06T05:15:04;8.07;;;5.00;;
32780;SDS011;19136;47.032;15.502;2022-07-06T05:17:30;7.38;;;4.90;;
32780;SDS011;19136;47.032;15.502;2022-07-06T05:19:56;11.23;;;5.00;;
32780;SDS011;19136;47.032;15.502;2022-07-06T05:22:22;6.93;;;5.10;;
32780;SDS011;19136;47.032;15.502;2022-07-06T05:24:47;10.30;;;4.82;;
32780;SDS011;19136;47.032;15.502;2022-07-06T05:27:13;18.67;;;5.82;;
32780;SDS011;19136;47.032;15.502;2022-07-06T05:29:38;15.77;;;5.05;;
32780;SDS011;19136;47.032;15.502;2022-07-06T05:32:04;8.90;;;4.40;;
32780;SDS011;19136;47.032;15.502;2022-07-06T05:34:30;11.65;;;4.50;;
32780;SDS011;19136;47.032;15.502;2022-07-06T05:36:55;11.82;;;4.47;;
32780;SDS011;19136;47.032;15.502;2022-07-06T05:39:21;11.32;;;4.70;;
32780;SDS011;19136;47.032;15.502;2022-07-06T05:41:47;8.20;;;4.50;;
32780;SDS011;19136;47.032;15.502;2022-07-06T05:44:13;6.03;;;4.38;;
32780;SDS011;19136;47.032;15.502;2022-07-06T05:46:39;10.07;;;4.03;;
32780;SDS011;19136;47.032;15.502;2022-07-06T05:49:04;9.55;;;4.07;;
32780;SDS011;19136;47.032;15.502;2022-07-06T05:51:48;9.27;;;4.13;;
32780;SDS011;19136;47.032;15.502;2022-07-06T05:54:14;7.10;;;4.07;;
32780;SDS011;19136;47.032;15.502;2022-07-06T05:56:40;9.07;;;4.18;;
32780;SDS011;19136;47.032;15.502;2022-07-06T05:59:06;11.32;;;3.90;;
32780;SDS011;19136;47.032;15.502;2022-07-06T06:01:31;7.13;;;3.50;;
32780;SDS011;19136;47.032;15.502;2022-07-06T06:03:57;8.02;;;3.33;;
32780;SDS011;19136;47.032;15.502;2022-07-06T06:06:24;7.85;;;3.15;;
32780;SDS011;19136;47.032;15.502;2022-07-06T06:08:50;10.30;;;3.85;;
32780;SDS011;19136;47.032;15.502;2022-07-06T06:11:16;10.57;;;3.67;;
32780;SDS011;19136;47.032;15.502;2022-07-06T06:13:42;7.78;;;3.65;;
32780;SDS011;19136;47.032;15.502;2022-07-06T06:16:08;14.05;;;3.60;;
32780;SDS011;19136;47.032;15.502;2022-07-06T06:18:40;12.32;;;3.92;;
32780;SDS011;19136;47.032;15.502;2022-07-06T06:21:06;10.68;;;3.80;;
32780;SDS011;19136;47.032;15.502;2022-07-06T06:23:32;8.38;;;3.40;;
32780;SDS011;19136;47.032;15.502;2022-07-06T06:25:58;7.63;;;3.47;;
32780;SDS011;19136;47.032;15.502;2022-07-06T06:28:23;8.73;;;3.38;;
32780;SDS011;19136;47.032;15.502;2022-07-06T06:30:49;8.50;;;3.53;;
32780;SDS011;19136;47.032;15.502;2022-07-06T06:33:15;10.10;;;4.00;;
32780;SDS011;19136;47.032;15.502;2022-07-06T06:35:51;4.38;;;2.78;;
32780;SDS011;19136;47.032;15.502;2022-07-06T06:38:18;13.73;;;4.03;;
32780;SDS011;19136;47.032;15.502;2022-07-06T06:40:46;7.13;;;4.13;;
32780;SDS011;19136;47.032;15.502;2022-07-06T06:43:12;12.80;;;4.05;;
32780;SDS011;19136;47.032;15.502;2022-07-06T06:45:37;13.27;;;3.45;;
32780;SDS011;19136;47.032;15.502;2022-07-06T06:48:03;9.00;;;4.03;;
32780;SDS011;19136;47.032;15.502;2022-07-06T06:50:29;9.23;;;3.50;;
32780;SDS011;19136;47.032;15.502;2022-07-06T06:52:55;12.30;;;3.67;;
32780;SDS011;19136;47.032;15.502;2022-07-06T06:55:21;9.00;;;3.63;;
32780;SDS011;19136;47.032;15.502;2022-07-06T06:57:46;10.07;;;3.55;;
32780;SDS011;19136;47.032;15.502;2022-07-06T07:00:12;11.73;;;4.65;;
32780;SDS011;19136;47.032;15.502;2022-07-06T07:02:38;11.82;;;3.58;;
32780;SDS011;19136;47.032;15.502;2022-07-06T07:05:04;10.60;;;3.95;;
32780;SDS011;19136;47.032;15.502;2022-07-06T07:07:31;9.70;;;4.22;;
32780;SDS011;19136;47.032;15.502;2022-07-06T07:09:57;11.98;;;3.60;;
32780;SDS011;19136;47.032;15.502;2022-07-06T07:12:22;13.82;;;4.20;;
32780;SDS011;19136;47.032;15.502;2022-07-06T07:14:48;10.52;;;3.72;;
32780;SDS011;19136;47.032;15.502;2022-07-06T07:17:14;7.03;;;3.70;;
32780;SDS011;19136;47.032;15.502;2022-07-06T07:19:41;14.63;;;4.32;;
32780;SDS011;19136;47.032;15.502;2022-07-06T07:22:07;8.07;;;3.67;;
32780;SDS011;19136;47.032;15.502;2022-07-06T07:24:32;11.07;;;4.25;;
32780;SDS011;19136;47.032;15.502;2022-07-06T07:26:58;17.85;;;4.90;;
32780;SDS011;19136;47.032;15.502;2022-07-06T07:29:24;11.15;;;3.88;;
32780;SDS011;19136;47.032;15.502;2022-07-06T07:31:49;17.70;;;4.90;;
32780;SDS011;19136;47.032;15.502;2022-07-06T07:34:15;11.23;;;3.50;;
32780;SDS011;19136;47.032;15.502;2022-07-06T07:36:41;12.27;;;4.13;;
32780;SDS011;19136;47.032;15.502;2022-07-06T07:39:07;6.30;;;2.83;;
32780;SDS011;19136;47.032;15.502;2022-07-06T07:41:32;11.88;;;2.88;;
32780;SDS011;19136;47.032;15.502;2022-07-06T07:43:59;16.23;;;3.40;;
32780;SDS011;19136;47.032;15.502;2022-07-06T07:46:25;7.05;;;3.38;;
32780;SDS011;19136;47.032;15.502;2022-07-06T07:48:50;8.30;;;3.28;;
32780;SDS011;19136;47.032;15.502;2022-07-06T07:51:20;5.95;;;2.85;;
32780;SDS011;19136;47.032;15.502;2022-07-06T07:53:45;7.72;;;3.42;;
32780;SDS011;19136;47.032;15.502;2022-07-06T07:56:11;9.27;;;3.08;;
32780;SDS011;19136;47.032;15.502;2022-07-06T07:58:37;7.25;;;3.13;;
32780;SDS011;19136;47.032;15.502;2022-07-06T08:01:02;13.15;;;3.35;;
32780;SDS011;19136;47.032;15.502;2022-07-06T08:03:29;7.90;;;3.15;;
32780;SDS011;19136;47.032;15.502;2022-07-06T08:05:56;14.10;;;3.83;;
32780;SDS011;19136;47.032;15.502;2022-07-06T08:08:22;11.27;;;3.50;;
32780;SDS011;19136;47.032;15.502;2022-07-06T08:10:48;12.93;;;3.20;;
32780;SDS011;19136;47.032;15.502;2022-07-06T08:13:13;5.25;;;2.67;;
32780;SDS011;19136;47.032;15.502;2022-07-06T08:15:40;12.20;;;2.60;;
32780;SDS011;19136;47.032;15.502;2022-07-06T08:18:06;6.70;;;2.92;;
32780;SDS011;19136;47.032;15.502;2022-07-06T08:20:31;11.32;;;3.05;;
32780;SDS011;19136;47.032;15.502;2022-07-06T08:22:57;9.77;;;2.50;;
32780;SDS011;19136;47.032;15.502;2022-07-06T08:25:22;10.00;;;2.70;;
32780;SDS011;19136;47.032;15.502;2022-07-06T08:27:48;8.68;;;2.72;;
32780;SDS011;19136;47.032;15.502;2022-07-06T08:30:14;10.15;;;2.85;;
32780;SDS011;19136;47.032;15.502;2022-07-06T08:32:42;4.90;;;2.17;;
32780;SDS011;19136;47.032;15.502;2022-07-06T08:35:11;11.57;;;2.63;;
32780;SDS011;19136;47.032;15.502;2022-07-06T08:37:36;4.60;;;2.13;;
32780;SDS011;19136;47.032;15.502;2022-07-06T08:40:02;5.95;;;2.08;;
32780;SDS011;19136;47.032;15.502;2022-07-06T08:42:32;3.78;;;1.75;;
32780;SDS011;19136;47.032;15.502;2022-07-06T08:44:59;6.05;;;1.50;;
32780;SDS011;19136;47.032;15.502;2022-07-06T08:47:26;3.20;;;1.63;;
32780;SDS011;19136;47.032;15.502;2022-07-06T08:49:53;2.90;;;1.27;;
32780;SDS011;19136;47.032;15.502;2022-07-06T08:52:23;3.20;;;1.23;;
32780;SDS011;19136;47.032;15.502;2022-07-06T08:54:49;5.05;;;1.33;;
32780;SDS011;19136;47.032;15.502;2022-07-06T08:57:14;1.77;;;0.90;;
32780;SDS011;19136;47.032;15.502;2022-07-06T08:59:40;2.20;;;1.25;;
32780;SDS011;19136;47.032;15.502;2022-07-06T09:02:06;3.55;;;1.33;;
32780;SDS011;19136;47.032;15.502;2022-07-06T09:04:35;3.65;;;0.95;;
32780;SDS011;19136;47.032;15.502;2022-07-06T09:07:01;3.80;;;1.00;;
32780;SDS011;19136;47.032;15.502;2022-07-06T09:09:26;3.05;;;1.00;;
32780;SDS011;19136;47.032;15.502;2022-07-06T09:11:53;5.75;;;0.90;;
32780;SDS011;19136;47.032;15.502;2022-07-06T09:14:19;4.43;;;1.10;;
32780;SDS011;19136;47.032;15.502;2022-07-06T09:16:45;2.53;;;1.27;;
32780;SDS011;19136;47.032;15.502;2022-07-06T09:19:12;4.07;;;1.30;;
32780;SDS011;19136;47.032;15.502;2022-07-06T09:21:41;3.15;;;1.02;;
32780;SDS011;19136;47.032;15.502;2022-07-06T09:24:09;1.98;;;1.00;;
32780;SDS011;19136;47.032;15.502;2022-07-06T09:26:36;4.75;;;0.98;;
32780;SDS011;19136;47.032;15.502;2022-07-06T09:29:03;4.32;;;1.15;;
32780;SDS011;19136;47.032;15.502;2022-07-06T09:31:29;3.63;;;1.10;;
32780;SDS011;19136;47.032;15.502;2022-07-06T09:36:43;4.65;;;1.05;;
32780;SDS011;19136;47.032;15.502;2022-07-06T09:41:42;1.27;;;0.70;;
32780;SDS011;19136;47.032;15.502;2022-07-06T09:44:09;2.47;;;1.27;;
32780;SDS011;19136;47.032;15.502;2022-07-06T09:46:41;2.33;;;1.30;;
32780;SDS011;19136;47.032;15.502;2022-07-06T09:49:07;3.85;;;1.20;;
32780;SDS011;19136;47.032;15.502;2022-07-06T09:51:36;2.35;;;1.13;;
32780;SDS011;19136;47.032;15.502;2022-07-06T09:54:06;2.72;;;1.00;;
32780;SDS011;19136;47.032;15.502;2022-07-06T09:59:14;8.23;;;1.10;;
32780;SDS011;19136;47.032;15.502;2022-07-06T10:01:40;1.80;;;1.35;;
32780;SDS011;19136;47.032;15.502;2022-07-06T10:04:10;2.33;;;1.30;;
32780;SDS011;19136;47.032;15.502;2022-07-06T10:06:40;4.80;;;1.00;;
32780;SDS011;19136;47.032;15.502;2022-07-06T10:09:07;3.50;;;0.82;;
32780;SDS011;19136;47.032;15.502;2022-07-06T10:11:34;7.78;;;1.13;;
32780;SDS011;19136;47.032;15.502;2022-07-06T10:14:03;1.40;;;0.82;;
32780;SDS011;19136;47.032;15.502;2022-07-06T10:16:30;1.83;;;1.00;;
32780;SDS011;19136;47.032;15.502;2022-07-06T10:18:56;2.85;;;1.38;;
32780;SDS011;19136;47.032;15.502;2022-07-06T10:21:23;2.45;;;1.20;;
32780;SDS011;19136;47.032;15.502;2022-07-06T10:23:51;1.80;;;1.00;;
32780;SDS011;19136;47.032;15.502;2022-07-06T10:26:18;1.05;;;0.80;;
32780;SDS011;19136;47.032;15.502;2022-07-06T10:28:45;2.25;;;1.17;;
32780;SDS011;19136;47.032;15.502;2022-07-06T10:31:13;1.38;;;0.80;;
32780;SDS011;19136;47.032;15.502;2022-07-06T10:33:40;3.00;;;1.10;;
32780;SDS011;19136;47.032;15.502;2022-07-06T10:36:06;5.47;;;1.48;;
32780;SDS011;19136;47.032;15.502;2022-07-06T10:38:33;2.75;;;1.00;;
32780;SDS011;19136;47.032;15.502;2022-07-06T10:41:03;2.08;;;1.00;;
32780;SDS011;19136;47.032;15.502;2022-07-06T10:43:36;3.42;;;1.00;;
32780;SDS011;19136;47.032;15.502;2022-07-06T10:46:10;3.25;;;1.27;;
32780;SDS011;19136;47.032;15.502;2022-07-06T10:48:46;5.18;;;1.25;;
32780;SDS011;19136;47.032;15.502;2022-07-06T10:51:21;10.48;;;1.48;;
32780;SDS011;19136;47.032;15.502;2022-07-06T10:53:49;2.15;;;1.10;;
32780;SDS011;19136;47.032;15.502;2022-07-06T10:56:40;2.70;;;1.15;;
32780;SDS011;19136;47.032;15.502;2022-07-06T10:59:09;3.00;;;0.80;;
32780;SDS011;19136;47.032;15.502;2022-07-06T11:01:36;3.50;;;0.98;;
32780;SDS011;19136;47.032;15.502;2022-07-06T11:06:30;2.25;;;0.80;;
32780;SDS011;19136;47.032;15.502;2022-07-06T11:08:58;2.30;;;0.88;;
32780;SDS011;19136;47.032;15.502;2022-07-06T11:16:32;2.22;;;0.90;;
32780;SDS011;19136;47.032;15.502;2022-07-06T11:23:58;2.00;;;1.00;;
32780;SDS011;19136;47.032;15.502;2022-07-06T11:26:24;1.60;;;0.90;;
32780;SDS011;19136;47.032;15.502;2022-07-06T11:28:50;3.47;;;1.10;;
32780;SDS011;19136;47.032;15.502;2022-07-06T11:31:17;2.40;;;0.95;;
32780;SDS011;19136;47.032;15.502;2022-07-06T11:33:46;1.00;;;0.80;;
32780;SDS011;19136;47.032;15.502;2022-07-06T11:36:12;6.32;;;0.80;;
32780;SDS011;19136;47.032;15.502;2022-07-06T11:38:42;1.98;;;1.00;;
32780;SDS011;19136;47.032;15.502;2022-07-06T11:41:08;6.32;;;1.10;;
32780;SDS011;19136;47.032;15.502;2022-07-06T11:43:34;1.45;;;0.80;;
32780;SDS011;19136;47.032;15.502;2022-07-06T11:46:00;2.58;;;1.13;;
32780;SDS011;19136;47.032;15.502;2022-07-06T11:48:25;2.25;;;0.80;;
32780;SDS011;19136;47.032;15.502;2022-07-06T11:51:00;1.52;;;0.80;;
32780;SDS011;19136;47.032;15.502;2022-07-06T11:53:26;2.10;;;0.90;;
32780;SDS011;19136;47.032;15.502;2022-07-06T11:55:52;2.95;;;1.10;;
32780;SDS011;19136;47.032;15.502;2022-07-06T11:58:22;2.00;;;0.90;;
32780;SDS011;19136;47.032;15.502;2022-07-06T12:01:07;2.53;;;0.88;;
32780;SDS011;19136;47.032;15.502;2022-07-06T12:03:34;2.47;;;0.93;;
32780;SDS011;19136;47.032;15.502;2022-07-06T12:06:01;2.53;;;0.75;;
32780;SDS011;19136;47.032;15.502;2022-07-06T12:08:27;2.58;;;0.90;;
32780;SDS011;19136;47.032;15.502;2022-07-06T12:10:53;2.33;;;0.90;;
32780;SDS011;19136;47.032;15.502;2022-07-06T12:13:20;1.85;;;0.90;;
32780;SDS011;19136;47.032;15.502;2022-07-06T12:15:46;1.20;;;0.80;;
32780;SDS011;19136;47.032;15.502;2022-07-06T12:18:11;2.50;;;0.85;;
32780;SDS011;19136;47.032;15.502;2022-07-06T12:20:37;3.75;;;1.00;;
32780;SDS011;19136;47.032;15.502;2022-07-06T12:23:03;2.90;;;1.25;;
32780;SDS011;19136;47.032;15.502;2022-07-06T12:25:30;11.93;;;0.90;;
32780;SDS011;19136;47.032;15.502;2022-07-06T12:27:59;3.03;;;1.00;;
32780;SDS011;19136;47.032;15.502;2022-07-06T12:30:24;5.65;;;0.88;;
32780;SDS011;19136;47.032;15.502;2022-07-06T12:35:41;2.97;;;0.80;;
32780;SDS011;19136;47.032;15.502;2022-07-06T12:38:07;1.45;;;0.70;;
32780;SDS011;19136;47.032;15.502;2022-07-06T12:40:35;4.22;;;0.80;;
32780;SDS011;19136;47.032;15.502;2022-07-06T12:43:01;3.35;;;0.80;;
32780;SDS011;19136;47.032;15.502;2022-07-06T12:45:28;2.35;;;0.88;;
32780;SDS011;19136;47.032;15.502;2022-07-06T12:48:01;1.88;;;0.90;;
32780;SDS011;19136;47.032;15.502;2022-07-06T12:50:37;1.67;;;0.63;;
32780;SDS011;19136;47.032;15.502;2022-07-06T12:53:04;3.85;;;0.75;;
32780;SDS011;19136;47.032;15.502;2022-07-06T12:55:30;3.88;;;0.77;;
32780;SDS011;19136;47.032;15.502;2022-07-06T12:57:57;3.03;;;0.70;;
32780;SDS011;19136;47.032;15.502;2022-07-06T13:00:23;2.88;;;0.75;;
32780;SDS011;19136;47.032;15.502;2022-07-06T13:02:50;2.30;;;0.90;;
32780;SDS011;19136;47.032;15.502;2022-07-06T13:05:24;1.50;;;0.70;;
32780;SDS011;19136;47.032;15.502;2022-07-06T13:07:54;3.45;;;0.70;;
32780;SDS011;19136;47.032;15.502;2022-07-06T13:10:21;1.98;;;0.75;;
32780;SDS011;19136;47.032;15.502;2022-07-06T13:12:47;5.10;;;0.80;;
32780;SDS011;19136;47.032;15.502;2022-07-06T13:15:12;1.50;;;0.60;;
32780;SDS011;19136;47.032;15.502;2022-07-06T13:17:38;5.55;;;0.90;;
32780;SDS011;19136;47.032;15.502;2022-07-06T13:20:04;4.00;;;0.80;;
32780;SDS011;19136;47.032;15.502;2022-07-06T13:22:31;2.00;;;0.77;;
32780;SDS011;19136;47.032;15.502;2022-07-06T13:24:56;2.25;;;0.80;;
32780;SDS011;19136;47.032;15.502;2022-07-06T13:27:22;3.13;;;1.00;;
32780;SDS011;19136;47.032;15.502;2022-07-06T13:29:47;2.17;;;0.80;;
32780;SDS011;19136;47.032;15.502;2022-07-06T13:32:13;1.80;;;0.80;;
32780;SDS011;19136;47.032;15.502;2022-07-06T13:34:38;3.60;;;0.80;;
32780;SDS011;19136;47.032;15.502;2022-07-06T13:37:04;1.60;;;0.80;;
32780;SDS011;19136;47.032;15.502;2022-07-06T13:39:31;1.67;;;0.85;;
32780;SDS011;19136;47.032;15.502;2022-07-06T13:41:57;2.13;;;0.80;;
32780;SDS011;19136;47.032;15.502;2022-07-06T13:44:23;1.42;;;0.70;;
32780;SDS011;19136;47.032;15.502;2022-07-06T13:46:49;3.83;;;0.90;;
32780;SDS011;19136;47.032;15.502;2022-07-06T13:49:15;1.05;;;0.77;;
32780;SDS011;19136;47.032;15.502;2022-07-06T13:51:41;3.63;;;0.95;;
32780;SDS011;19136;47.032;15.502;2022-07-06T13:54:07;5.47;;;1.00;;
32780;SDS011;19136;47.032;15.502;2022-07-06T13:56:32;2.65;;;0.80;;
32780;SDS011;19136;47.032;15.502;2022-07-06T13:58:58;2.95;;;0.90;;
32780;SDS011;19136;47.032;15.502;2022-07-06T14:01:25;2.25;;;0.93;;
32780;SDS011;19136;47.032;15.502;2022-07-06T14:03:50;2.05;;;0.80;;
32780;SDS011;19136;47.032;15.502;2022-07-06T14:06:16;2.22;;;0.75;;
32780;SDS011;19136;47.032;15.502;2022-07-06T14:08:42;5.78;;;1.00;;
32780;SDS011;19136;47.032;15.502;2022-07-06T14:11:08;2.17;;;1.10;;
32780;SDS011;19136;47.032;15.502;2022-07-06T14:13:35;7.95;;;0.80;;
32780;SDS011;19136;47.032;15.502;2022-07-06T14:16:01;3.72;;;0.93;;
32780;SDS011;19136;47.032;15.502;2022-07-06T14:18:27;2.72;;;1.00;;
32780;SDS011;19136;47.032;15.502;2022-07-06T14:20:53;1.92;;;0.68;;
32780;SDS011;19136;47.032;15.502;2022-07-06T14:23:19;2.70;;;0.82;;
32780;SDS011;19136;47.032;15.502;2022-07-06T14:25:45;1.10;;;0.70;;
32780;SDS011;19136;47.032;15.502;2022-07-06T14:28:11;1.23;;;0.80;;
32780;SDS011;19136;47.032;15.502;2022-07-06T14:30:41;3.63;;;0.90;;
32780;SDS011;19136;47.032;15.502;2022-07-06T14:33:10;7.53;;;0.88;;
32780;SDS011;19136;47.032;15.502;2022-07-06T14:35:43;3.17;;;1.13;;
32780;SDS011;19136;47.032;15.502;2022-07-06T14:38:13;1.33;;;0.80;;
32780;SDS011;19136;47.032;15.502;2022-07-06T14:40:40;2.17;;;0.93;;
32780;SDS011;19136;47.032;15.502;2022-07-06T14:43:06;5.68;;;1.35;;
32780;SDS011;19136;47.032;15.502;2022-07-06T14:45:31;1.40;;;0.90;;
32780;SDS011;19136;47.032;15.502;2022-07-06T14:47:57;8.02;;;1.17;;
32780;SDS011;19136;47.032;15.502;2022-07-06T14:50:23;3.28;;;1.20;;